sensor_id;sensor_type;location;lat;lon;timestamp;temperature;humidity
32201;DHT22;18701;45.588;5.288;2023-04-24T00:01:41;12.50;99.90
32201;DHT22;18701;45.588;5.288;2023-04-24T00:04:08;12.50;99.90
32201;DHT22;18701;45.588;5.288;2023-04-24T00:06:36;12.60;99.90
32201;DHT22;18701;45.588;5.288;2023-04-24T00:09:03;12.50;99.90
32201;DHT22;18701;45.588;5.288;2023-04-24T00:11:29;12.40;99.90
32201;DHT22;18701;45.588;5.288;2023-04-24T00:13:56;12.40;99.90
32201;DHT22;18701;45.588;5.288;2023-04-24T00:16:22;12.40;99.90
32201;DHT22;18701;45.588;5.288;2023-04-24T00:18:48;12.50;99.90
32201;DHT22;18701;45.588;5.288;2023-04-24T00:21:15;12.40;99.90
32201;DHT22;18701;45.588;5.288;2023-04-24T00:23:43;12.40;99.90
32201;DHT22;18701;45.588;5.288;2023-04-24T00:26:09;12.40;99.90
32201;DHT22;18701;45.588;5.288;2023-04-24T00:28:35;12.40;99.90
32201;DHT22;18701;45.588;5.288;2023-04-24T00:31:01;12.40;99.90
32201;DHT22;18701;45.588;5.288;2023-04-24T00:33:26;12.50;99.90
32201;DHT22;18701;45.588;5.288;2023-04-24T00:35:52;12.40;99.90
32201;DHT22;18701;45.588;5.288;2023-04-24T00:38:18;12.50;99.90
32201;DHT22;18701;45.588;5.288;2023-04-24T00:40:44;12.50;99.90
32201;DHT22;18701;45.588;5.288;2023-04-24T00:43:10;12.40;99.90
32201;DHT22;18701;45.588;5.288;2023-04-24T00:45:36;12.30;99.90
32201;DHT22;18701;45.588;5.288;2023-04-24T00:48:02;12.30;99.90
32201;DHT22;18701;45.588;5.288;2023-04-24T00:50:28;12.40;99.90
32201;DHT22;18701;45.588;5.288;2023-04-24T00:52:54;12.50;99.90
32201;DHT22;18701;45.588;5.288;2023-04-24T00:55:20;12.30;99.90
32201;DHT22;18701;45.588;5.288;2023-04-24T00:57:46;12.50;99.90
32201;DHT22;18701;45.588;5.288;2023-04-24T01:00:13;12.50;99.90
32201;DHT22;18701;45.588;5.288;2023-04-24T01:02:40;12.50;99.90
32201;DHT22;18701;45.588;5.288;2023-04-24T01:05:11;12.40;99.90
32201;DHT22;18701;45.588;5.288;2023-04-24T01:07:37;12.50;99.90
32201;DHT22;18701;45.588;5.288;2023-04-24T01:10:03;12.40;99.90
32201;DHT22;18701;45.588;5.288;2023-04-24T01:12:29;12.40;99.90
32201;DHT22;18701;45.588;5.288;2023-04-24T01:14:56;12.50;99.90
32201;DHT22;18701;45.588;5.288;2023-04-24T01:17:22;12.40;99.90
32201;DHT22;18701;45.588;5.288;2023-04-24T01:19:50;12.30;99.90
32201;DHT22;18701;45.588;5.288;2023-04-24T01:22:19;12.40;99.90
32201;DHT22;18701;45.588;5.288;2023-04-24T01:24:46;12.50;99.90
32201;DHT22;18701;45.588;5.288;2023-04-24T01:27:12;12.50;99.90
32201;DHT22;18701;45.588;5.288;2023-04-24T01:29:38;12.40;99.90
32201;DHT22;18701;45.588;5.288;2023-04-24T01:32:04;12.40;99.90
32201;DHT22;18701;45.588;5.288;2023-04-24T01:34:30;12.40;99.90
32201;DHT22;18701;45.588;5.288;2023-04-24T01:36:56;12.30;99.90
32201;DHT22;18701;45.588;5.288;2023-04-24T01:39:22;12.40;99.90
32201;DHT22;18701;45.588;5.288;2023-04-24T01:41:54;12.40;99.90
32201;DHT22;18701;45.588;5.288;2023-04-24T01:44:20;12.40;99.90
32201;DHT22;18701;45.588;5.288;2023-04-24T01:46:46;12.30;99.90
32201;DHT22;18701;45.588;5.288;2023-04-24T01:49:12;12.40;99.90
32201;DHT22;18701;45.588;5.288;2023-04-24T01:51:37;12.40;99.90
32201;DHT22;18701;45.588;5.288;2023-04-24T01:54:03;12.40;99.90
32201;DHT22;18701;45.588;5.288;2023-04-24T01:56:29;12.50;99.90
32201;DHT22;18701;45.588;5.288;2023-04-24T01:58:56;12.50;99.90
32201;DHT22;18701;45.588;5.288;2023-04-24T02:01:24;12.50;99.90
32201;DHT22;18701;45.588;5.288;2023-04-24T02:03:50;12.40;99.90
32201;DHT22;18701;45.588;5.288;2023-04-24T02:06:15;12.40;99.90
32201;DHT22;18701;45.588;5.288;2023-04-24T02:08:41;12.50;99.90
32201;DHT22;18701;45.588;5.288;2023-04-24T02:11:09;12.50;99.90
32201;DHT22;18701;45.588;5.288;2023-04-24T02:13:35;12.60;99.90
32201;DHT22;18701;45.588;5.288;2023-04-24T02:16:00;12.50;99.90
32201;DHT22;18701;45.588;5.288;2023-04-24T02:18:26;12.50;99.90
32201;DHT22;18701;45.588;5.288;2023-04-24T02:20:52;12.60;99.90
32201;DHT22;18701;45.588;5.288;2023-04-24T02:23:17;12.50;99.90
32201;DHT22;18701;45.588;5.288;2023-04-24T02:25:43;12.50;99.90
32201;DHT22;18701;45.588;5.288;2023-04-24T02:28:09;12.60;99.90
32201;DHT22;18701;45.588;5.288;2023-04-24T02:30:34;12.50;99.90
32201;DHT22;18701;45.588;5.288;2023-04-24T02:33:00;12.50;99.90
32201;DHT22;18701;45.588;5.288;2023-04-24T02:35:25;12.50;99.90
32201;DHT22;18701;45.588;5.288;2023-04-24T02:37:51;12.40;99.90
32201;DHT22;18701;45.588;5.288;2023-04-24T02:40:17;12.40;99.90
32201;DHT22;18701;45.588;5.288;2023-04-24T02:42:42;12.30;99.90
32201;DHT22;18701;45.588;5.288;2023-04-24T02:45:08;12.30;99.90
32201;DHT22;18701;45.588;5.288;2023-04-24T02:47:34;12.40;99.90
32201;DHT22;18701;45.588;5.288;2023-04-24T02:50:00;12.40;99.90
32201;DHT22;18701;45.588;5.288;2023-04-24T02:52:26;12.40;99.90
32201;DHT22;18701;45.588;5.288;2023-04-24T02:54:52;12.40;99.90
32201;DHT22;18701;45.588;5.288;2023-04-24T02:57:19;12.30;99.90
32201;DHT22;18701;45.588;5.288;2023-04-24T02:59:44;12.30;99.90
32201;DHT22;18701;45.588;5.288;2023-04-24T03:02:10;12.30;99.90
32201;DHT22;18701;45.588;5.288;2023-04-24T03:04:35;12.40;99.90
32201;DHT22;18701;45.588;5.288;2023-04-24T03:07:01;12.40;99.90
32201;DHT22;18701;45.588;5.288;2023-04-24T03:09:27;12.40;99.90
32201;DHT22;18701;45.588;5.288;2023-04-24T03:11:53;12.40;99.90
32201;DHT22;18701;45.588;5.288;2023-04-24T03:14:18;12.30;99.90
32201;DHT22;18701;45.588;5.288;2023-04-24T03:16:44;12.20;99.90
32201;DHT22;18701;45.588;5.288;2023-04-24T03:19:10;12.20;99.90
32201;DHT22;18701;45.588;5.288;2023-04-24T03:21:35;12.30;99.90
32201;DHT22;18701;45.588;5.288;2023-04-24T03:24:06;12.30;99.90
32201;DHT22;18701;45.588;5.288;2023-04-24T03:26:32;12.20;99.90
32201;DHT22;18701;45.588;5.288;2023-04-24T03:28:57;12.20;99.90
32201;DHT22;18701;45.588;5.288;2023-04-24T03:31:23;12.30;99.90
32201;DHT22;18701;45.588;5.288;2023-04-24T03:33:49;12.30;99.90
32201;DHT22;18701;45.588;5.288;2023-04-24T03:36:14;12.40;99.90
32201;DHT22;18701;45.588;5.288;2023-04-24T03:38:40;12.40;99.90
32201;DHT22;18701;45.588;5.288;2023-04-24T03:41:05;12.20;99.90
32201;DHT22;18701;45.588;5.288;2023-04-24T03:43:31;12.10;99.90
32201;DHT22;18701;45.588;5.288;2023-04-24T03:45:58;12.10;99.90
32201;DHT22;18701;45.588;5.288;2023-04-24T03:48:24;12.10;99.90
32201;DHT22;18701;45.588;5.288;2023-04-24T03:50:50;12.10;99.90
32201;DHT22;18701;45.588;5.288;2023-04-24T03:53:15;12.00;99.90
32201;DHT22;18701;45.588;5.288;2023-04-24T03:55:41;12.10;99.90
32201;DHT22;18701;45.588;5.288;2023-04-24T03:58:07;12.10;99.90
32201;DHT22;18701;45.588;5.288;2023-04-24T04:00:32;12.10;99.90
32201;DHT22;18701;45.588;5.288;2023-04-24T04:02:58;12.00;99.90
32201;DHT22;18701;45.588;5.288;2023-04-24T04:05:24;12.00;99.90
32201;DHT22;18701;45.588;5.288;2023-04-24T04:07:49;12.00;99.90
32201;DHT22;18701;45.588;5.288;2023-04-24T04:10:15;12.00;99.90
32201;DHT22;18701;45.588;5.288;2023-04-24T04:12:42;11.90;99.90
32201;DHT22;18701;45.588;5.288;2023-04-24T04:15:08;11.90;99.90
32201;DHT22;18701;45.588;5.288;2023-04-24T04:17:34;11.90;99.90
32201;DHT22;18701;45.588;5.288;2023-04-24T04:20:00;12.00;99.90
32201;DHT22;18701;45.588;5.288;2023-04-24T04:22:26;12.00;99.90
32201;DHT22;18701;45.588;5.288;2023-04-24T04:24:51;12.00;99.90
32201;DHT22;18701;45.588;5.288;2023-04-24T04:27:17;11.90;99.90
32201;DHT22;18701;45.588;5.288;2023-04-24T04:29:44;11.90;99.90
32201;DHT22;18701;45.588;5.288;2023-04-24T04:32:10;11.90;99.90
32201;DHT22;18701;45.588;5.288;2023-04-24T04:34:35;11.80;99.90
32201;DHT22;18701;45.588;5.288;2023-04-24T04:37:03;11.80;99.90
32201;DHT22;18701;45.588;5.288;2023-04-24T04:39:29;11.80;99.90
32201;DHT22;18701;45.588;5.288;2023-04-24T04:41:55;11.70;99.90
32201;DHT22;18701;45.588;5.288;2023-04-24T04:44:21;11.40;99.90
32201;DHT22;18701;45.588;5.288;2023-04-24T04:46:47;11.30;99.90
32201;DHT22;18701;45.588;5.288;2023-04-24T04:49:13;11.20;99.90
32201;DHT22;18701;45.588;5.288;2023-04-24T04:51:42;11.20;99.90
32201;DHT22;18701;45.588;5.288;2023-04-24T04:54:07;11.10;99.90
32201;DHT22;18701;45.588;5.288;2023-04-24T04:56:33;11.00;99.90
32201;DHT22;18701;45.588;5.288;2023-04-24T04:58:58;11.20;99.90
32201;DHT22;18701;45.588;5.288;2023-04-24T05:01:24;11.00;99.90
32201;DHT22;18701;45.588;5.288;2023-04-24T05:03:52;11.00;99.90
32201;DHT22;18701;45.588;5.288;2023-04-24T05:06:18;11.10;99.90
32201;DHT22;18701;45.588;5.288;2023-04-24T05:08:44;11.20;99.90
32201;DHT22;18701;45.588;5.288;2023-04-24T05:11:10;11.00;99.90
32201;DHT22;18701;45.588;5.288;2023-04-24T05:13:35;11.10;99.90
32201;DHT22;18701;45.588;5.288;2023-04-24T05:16:01;11.00;99.90
32201;DHT22;18701;45.588;5.288;2023-04-24T05:18:26;11.00;99.90
32201;DHT22;18701;45.588;5.288;2023-04-24T05:20:52;11.10;99.90
32201;DHT22;18701;45.588;5.288;2023-04-24T05:23:18;11.10;99.90
32201;DHT22;18701;45.588;5.288;2023-04-24T05:25:43;11.20;99.90
32201;DHT22;18701;45.588;5.288;2023-04-24T05:28:09;11.30;99.90
32201;DHT22;18701;45.588;5.288;2023-04-24T05:30:34;11.50;99.90
32201;DHT22;18701;45.588;5.288;2023-04-24T05:33:00;11.40;99.90
32201;DHT22;18701;45.588;5.288;2023-04-24T05:35:26;11.50;99.90
32201;DHT22;18701;45.588;5.288;2023-04-24T05:37:53;11.40;99.90
32201;DHT22;18701;45.588;5.288;2023-04-24T05:40:19;11.40;99.90
32201;DHT22;18701;45.588;5.288;2023-04-24T05:42:44;11.40;99.90
32201;DHT22;18701;45.588;5.288;2023-04-24T05:45:10;11.60;99.90
32201;DHT22;18701;45.588;5.288;2023-04-24T05:47:42;11.50;99.90
32201;DHT22;18701;45.588;5.288;2023-04-24T05:50:08;11.30;99.90
32201;DHT22;18701;45.588;5.288;2023-04-24T05:52:33;11.50;99.90
32201;DHT22;18701;45.588;5.288;2023-04-24T05:54:59;11.40;99.90
32201;DHT22;18701;45.588;5.288;2023-04-24T05:57:25;11.60;99.90
32201;DHT22;18701;45.588;5.288;2023-04-24T05:59:50;11.60;99.90
32201;DHT22;18701;45.588;5.288;2023-04-24T06:02:16;11.70;99.90
32201;DHT22;18701;45.588;5.288;2023-04-24T06:04:42;11.80;99.90
32201;DHT22;18701;45.588;5.288;2023-04-24T06:07:10;11.70;99.90
32201;DHT22;18701;45.588;5.288;2023-04-24T06:09:36;11.80;99.90
32201;DHT22;18701;45.588;5.288;2023-04-24T06:12:02;11.80;99.90
32201;DHT22;18701;45.588;5.288;2023-04-24T06:14:28;11.70;99.90
32201;DHT22;18701;45.588;5.288;2023-04-24T06:16:53;11.80;99.90
32201;DHT22;18701;45.588;5.288;2023-04-24T06:19:19;11.70;99.90
32201;DHT22;18701;45.588;5.288;2023-04-24T06:21:45;11.80;99.90
32201;DHT22;18701;45.588;5.288;2023-04-24T06:24:10;11.70;99.90
32201;DHT22;18701;45.588;5.288;2023-04-24T06:26:36;11.90;99.90
32201;DHT22;18701;45.588;5.288;2023-04-24T06:29:02;11.80;99.90
32201;DHT22;18701;45.588;5.288;2023-04-24T06:31:27;11.80;99.90
32201;DHT22;18701;45.588;5.288;2023-04-24T06:33:53;11.80;99.90
32201;DHT22;18701;45.588;5.288;2023-04-24T06:36:19;11.60;99.90
32201;DHT22;18701;45.588;5.288;2023-04-24T06:38:45;11.70;99.90
32201;DHT22;18701;45.588;5.288;2023-04-24T06:41:10;11.80;99.90
32201;DHT22;18701;45.588;5.288;2023-04-24T06:43:36;11.90;99.90
32201;DHT22;18701;45.588;5.288;2023-04-24T06:46:01;12.00;99.90
32201;DHT22;18701;45.588;5.288;2023-04-24T06:48:29;11.90;99.90
32201;DHT22;18701;45.588;5.288;2023-04-24T06:50:54;11.80;99.90
32201;DHT22;18701;45.588;5.288;2023-04-24T06:53:20;11.90;99.90
32201;DHT22;18701;45.588;5.288;2023-04-24T06:55:46;11.80;99.90
32201;DHT22;18701;45.588;5.288;2023-04-24T06:58:12;11.50;99.90
32201;DHT22;18701;45.588;5.288;2023-04-24T07:00:38;11.60;99.90
32201;DHT22;18701;45.588;5.288;2023-04-24T07:03:03;11.60;99.90
32201;DHT22;18701;45.588;5.288;2023-04-24T07:05:31;11.60;99.90
32201;DHT22;18701;45.588;5.288;2023-04-24T07:07:56;11.50;99.90
32201;DHT22;18701;45.588;5.288;2023-04-24T07:10:24;11.60;99.90
32201;DHT22;18701;45.588;5.288;2023-04-24T07:12:50;11.60;99.90
32201;DHT22;18701;45.588;5.288;2023-04-24T07:15:15;11.60;99.90
32201;DHT22;18701;45.588;5.288;2023-04-24T07:17:41;11.60;99.90
32201;DHT22;18701;45.588;5.288;2023-04-24T07:20:10;11.70;99.90
32201;DHT22;18701;45.588;5.288;2023-04-24T07:22:40;11.90;99.90
32201;DHT22;18701;45.588;5.288;2023-04-24T07:25:06;12.00;99.90
32201;DHT22;18701;45.588;5.288;2023-04-24T07:27:32;12.20;99.90
32201;DHT22;18701;45.588;5.288;2023-04-24T07:29:58;12.50;99.90
32201;DHT22;18701;45.588;5.288;2023-04-24T07:32:24;12.60;99.90
32201;DHT22;18701;45.588;5.288;2023-04-24T07:34:49;12.70;99.90
32201;DHT22;18701;45.588;5.288;2023-04-24T07:37:15;12.60;99.90
32201;DHT22;18701;45.588;5.288;2023-04-24T07:39:40;12.40;99.90
32201;DHT22;18701;45.588;5.288;2023-04-24T07:42:06;12.20;99.90
32201;DHT22;18701;45.588;5.288;2023-04-24T07:44:32;12.30;99.90
32201;DHT22;18701;45.588;5.288;2023-04-24T07:46:57;12.30;99.90
32201;DHT22;18701;45.588;5.288;2023-04-24T07:49:23;12.20;99.90
32201;DHT22;18701;45.588;5.288;2023-04-24T07:51:49;12.30;99.90
32201;DHT22;18701;45.588;5.288;2023-04-24T07:54:15;12.40;99.90
32201;DHT22;18701;45.588;5.288;2023-04-24T07:56:41;12.80;99.90
32201;DHT22;18701;45.588;5.288;2023-04-24T07:59:08;12.80;99.90
32201;DHT22;18701;45.588;5.288;2023-04-24T08:01:35;12.90;99.90
32201;DHT22;18701;45.588;5.288;2023-04-24T08:04:01;12.80;99.90
32201;DHT22;18701;45.588;5.288;2023-04-24T08:06:27;12.70;99.90
32201;DHT22;18701;45.588;5.288;2023-04-24T08:08:57;12.80;99.90
32201;DHT22;18701;45.588;5.288;2023-04-24T08:11:23;13.00;99.90
32201;DHT22;18701;45.588;5.288;2023-04-24T08:13:49;13.00;99.90
32201;DHT22;18701;45.588;5.288;2023-04-24T08:16:15;12.80;99.90
32201;DHT22;18701;45.588;5.288;2023-04-24T08:18:41;12.70;99.90
32201;DHT22;18701;45.588;5.288;2023-04-24T08:21:06;12.60;99.90
32201;DHT22;18701;45.588;5.288;2023-04-24T08:23:32;12.90;99.90
32201;DHT22;18701;45.588;5.288;2023-04-24T08:25:58;13.30;99.90
32201;DHT22;18701;45.588;5.288;2023-04-24T08:28:23;13.40;99.90
32201;DHT22;18701;45.588;5.288;2023-04-24T08:30:49;13.60;99.90
32201;DHT22;18701;45.588;5.288;2023-04-24T08:33:20;13.70;99.90
32201;DHT22;18701;45.588;5.288;2023-04-24T08:35:46;13.90;99.90
32201;DHT22;18701;45.588;5.288;2023-04-24T08:38:11;13.80;99.90
32201;DHT22;18701;45.588;5.288;2023-04-24T08:40:37;13.90;99.90
32201;DHT22;18701;45.588;5.288;2023-04-24T08:43:03;14.00;99.90
32201;DHT22;18701;45.588;5.288;2023-04-24T08:45:29;13.40;99.90
32201;DHT22;18701;45.588;5.288;2023-04-24T08:47:55;13.50;99.90
32201;DHT22;18701;45.588;5.288;2023-04-24T08:50:21;13.50;99.90
32201;DHT22;18701;45.588;5.288;2023-04-24T08:52:50;13.80;99.90
32201;DHT22;18701;45.588;5.288;2023-04-24T08:55:16;13.70;99.90
32201;DHT22;18701;45.588;5.288;2023-04-24T08:57:50;13.90;99.90
32201;DHT22;18701;45.588;5.288;2023-04-24T09:00:18;13.90;99.90
32201;DHT22;18701;45.588;5.288;2023-04-24T09:02:45;14.00;99.90
32201;DHT22;18701;45.588;5.288;2023-04-24T09:05:13;13.90;99.90
32201;DHT22;18701;45.588;5.288;2023-04-24T09:07:39;14.20;99.90
32201;DHT22;18701;45.588;5.288;2023-04-24T09:10:07;14.80;99.90
32201;DHT22;18701;45.588;5.288;2023-04-24T09:12:34;15.10;99.90
32201;DHT22;18701;45.588;5.288;2023-04-24T09:15:01;15.20;99.90
32201;DHT22;18701;45.588;5.288;2023-04-24T09:17:29;15.40;99.90
32201;DHT22;18701;45.588;5.288;2023-04-24T09:19:55;15.40;99.90
32201;DHT22;18701;45.588;5.288;2023-04-24T09:22:21;15.70;99.90
32201;DHT22;18701;45.588;5.288;2023-04-24T09:24:47;15.70;99.90
32201;DHT22;18701;45.588;5.288;2023-04-24T09:27:13;15.70;99.90
32201;DHT22;18701;45.588;5.288;2023-04-24T09:29:56;15.70;99.90
32201;DHT22;18701;45.588;5.288;2023-04-24T09:32:22;15.70;99.90
32201;DHT22;18701;45.588;5.288;2023-04-24T09:35:08;15.50;99.90
32201;DHT22;18701;45.588;5.288;2023-04-24T09:37:36;15.70;99.90
32201;DHT22;18701;45.588;5.288;2023-04-24T09:40:18;15.60;99.90
32201;DHT22;18701;45.588;5.288;2023-04-24T09:42:52;15.40;99.90
32201;DHT22;18701;45.588;5.288;2023-04-24T09:45:18;15.30;99.90
32201;DHT22;18701;45.588;5.288;2023-04-24T09:47:44;15.20;99.90
32201;DHT22;18701;45.588;5.288;2023-04-24T09:50:15;15.00;99.90
32201;DHT22;18701;45.588;5.288;2023-04-24T09:52:46;15.20;99.90
32201;DHT22;18701;45.588;5.288;2023-04-24T09:55:19;15.30;99.90
32201;DHT22;18701;45.588;5.288;2023-04-24T09:57:54;15.80;99.90
32201;DHT22;18701;45.588;5.288;2023-04-24T10:00:25;16.00;99.90
32201;DHT22;18701;45.588;5.288;2023-04-24T10:03:03;16.20;99.90
32201;DHT22;18701;45.588;5.288;2023-04-24T10:05:32;16.10;99.90
32201;DHT22;18701;45.588;5.288;2023-04-24T10:08:16;15.80;99.90
32201;DHT22;18701;45.588;5.288;2023-04-24T10:10:45;15.40;99.90
32201;DHT22;18701;45.588;5.288;2023-04-24T10:13:13;15.60;99.90
32201;DHT22;18701;45.588;5.288;2023-04-24T10:15:40;15.90;99.90
32201;DHT22;18701;45.588;5.288;2023-04-24T10:18:08;16.60;99.90
32201;DHT22;18701;45.588;5.288;2023-04-24T10:20:36;16.30;99.90
32201;DHT22;18701;45.588;5.288;2023-04-24T10:23:03;16.10;99.90
32201;DHT22;18701;45.588;5.288;2023-04-24T10:25:33;16.30;99.90
32201;DHT22;18701;45.588;5.288;2023-04-24T10:28:01;16.40;99.90
32201;DHT22;18701;45.588;5.288;2023-04-24T10:30:28;16.80;99.90
32201;DHT22;18701;45.588;5.288;2023-04-24T10:32:54;16.90;99.90
32201;DHT22;18701;45.588;5.288;2023-04-24T10:35:22;16.70;99.90
32201;DHT22;18701;45.588;5.288;2023-04-24T10:37:56;16.50;99.90
32201;DHT22;18701;45.588;5.288;2023-04-24T10:40:29;16.60;99.90
32201;DHT22;18701;45.588;5.288;2023-04-24T10:42:56;17.00;99.90
32201;DHT22;18701;45.588;5.288;2023-04-24T10:45:23;17.40;99.90
32201;DHT22;18701;45.588;5.288;2023-04-24T10:48:12;17.90;99.90
32201;DHT22;18701;45.588;5.288;2023-04-24T10:50:47;17.50;99.90
32201;DHT22;18701;45.588;5.288;2023-04-24T10:53:20;16.90;99.90
32201;DHT22;18701;45.588;5.288;2023-04-24T10:55:50;16.70;99.90
32201;DHT22;18701;45.588;5.288;2023-04-24T10:58:18;16.10;99.90
32201;DHT22;18701;45.588;5.288;2023-04-24T11:00:58;16.50;99.90
32201;DHT22;18701;45.588;5.288;2023-04-24T11:10:56;16.60;99.90
32201;DHT22;18701;45.588;5.288;2023-04-24T11:13:24;16.80;99.90
32201;DHT22;18701;45.588;5.288;2023-04-24T11:21:45;17.80;99.90
32201;DHT22;18701;45.588;5.288;2023-04-24T11:24:38;18.20;99.90
32201;DHT22;18701;45.588;5.288;2023-04-24T11:29:58;18.20;99.90
32201;DHT22;18701;45.588;5.288;2023-04-24T11:37:37;18.70;99.90
32201;DHT22;18701;45.588;5.288;2023-04-24T11:40:04;19.00;98.40
32201;DHT22;18701;45.588;5.288;2023-04-24T11:42:42;19.20;98.00
32201;DHT22;18701;45.588;5.288;2023-04-24T11:45:10;19.50;98.70
32201;DHT22;18701;45.588;5.288;2023-04-24T11:47:36;20.20;99.30
32201;DHT22;18701;45.588;5.288;2023-04-24T11:50:03;20.20;99.30
32201;DHT22;18701;45.588;5.288;2023-04-24T11:52:30;20.00;98.30
32201;DHT22;18701;45.588;5.288;2023-04-24T11:54:56;19.70;97.10
32201;DHT22;18701;45.588;5.288;2023-04-24T11:57:25;19.70;97.70
32201;DHT22;18701;45.588;5.288;2023-04-24T11:59:59;20.10;97.00
32201;DHT22;18701;45.588;5.288;2023-04-24T12:02:26;20.10;97.60
32201;DHT22;18701;45.588;5.288;2023-04-24T12:04:55;20.50;98.00
32201;DHT22;18701;45.588;5.288;2023-04-24T12:07:22;20.50;99.20
32201;DHT22;18701;45.588;5.288;2023-04-24T12:09:55;20.50;98.10
32201;DHT22;18701;45.588;5.288;2023-04-24T12:12:21;20.00;96.90
32201;DHT22;18701;45.588;5.288;2023-04-24T12:14:57;19.30;97.30
32201;DHT22;18701;45.588;5.288;2023-04-24T12:17:28;19.50;97.40
32201;DHT22;18701;45.588;5.288;2023-04-24T12:20:07;19.60;97.30
32201;DHT22;18701;45.588;5.288;2023-04-24T12:22:50;19.50;98.10
32201;DHT22;18701;45.588;5.288;2023-04-24T12:25:20;19.20;97.10
32201;DHT22;18701;45.588;5.288;2023-04-24T12:27:51;19.00;97.70
32201;DHT22;18701;45.588;5.288;2023-04-24T12:30:17;18.90;97.80
32201;DHT22;18701;45.588;5.288;2023-04-24T12:32:48;18.60;96.90
32201;DHT22;18701;45.588;5.288;2023-04-24T12:35:19;19.00;96.10
32201;DHT22;18701;45.588;5.288;2023-04-24T12:37:46;20.10;98.00
32201;DHT22;18701;45.588;5.288;2023-04-24T12:40:12;20.80;96.60
32201;DHT22;18701;45.588;5.288;2023-04-24T12:42:48;21.00;96.10
32201;DHT22;18701;45.588;5.288;2023-04-24T12:45:16;20.40;94.00
32201;DHT22;18701;45.588;5.288;2023-04-24T12:47:42;19.60;94.30
32201;DHT22;18701;45.588;5.288;2023-04-24T12:50:12;19.30;93.70
32201;DHT22;18701;45.588;5.288;2023-04-24T12:52:39;19.50;94.40
32201;DHT22;18701;45.588;5.288;2023-04-24T12:55:06;19.50;95.10
32201;DHT22;18701;45.588;5.288;2023-04-24T12:57:36;19.90;95.70
32201;DHT22;18701;45.588;5.288;2023-04-24T13:00:02;20.00;95.30
32201;DHT22;18701;45.588;5.288;2023-04-24T13:02:29;19.80;93.40
32201;DHT22;18701;45.588;5.288;2023-04-24T13:04:59;19.30;93.90
32201;DHT22;18701;45.588;5.288;2023-04-24T13:07:25;19.20;95.90
32201;DHT22;18701;45.588;5.288;2023-04-24T13:09:51;19.00;93.80
32201;DHT22;18701;45.588;5.288;2023-04-24T13:12:18;19.20;93.40
32201;DHT22;18701;45.588;5.288;2023-04-24T13:14:44;20.00;93.80
32201;DHT22;18701;45.588;5.288;2023-04-24T13:17:10;20.70;93.60
32201;DHT22;18701;45.588;5.288;2023-04-24T13:19:38;20.00;93.50
32201;DHT22;18701;45.588;5.288;2023-04-24T13:22:04;19.50;93.90
32201;DHT22;18701;45.588;5.288;2023-04-24T13:24:31;19.00;93.20
32201;DHT22;18701;45.588;5.288;2023-04-24T13:26:57;19.00;93.60
32201;DHT22;18701;45.588;5.288;2023-04-24T13:29:23;19.40;93.70
32201;DHT22;18701;45.588;5.288;2023-04-24T13:31:53;19.40;95.10
32201;DHT22;18701;45.588;5.288;2023-04-24T13:34:26;19.70;95.30
32201;DHT22;18701;45.588;5.288;2023-04-24T13:36:56;19.60;94.80
32201;DHT22;18701;45.588;5.288;2023-04-24T13:39:25;19.40;94.30
32201;DHT22;18701;45.588;5.288;2023-04-24T13:41:58;19.20;94.60
32201;DHT22;18701;45.588;5.288;2023-04-24T13:44:24;19.20;95.20
32201;DHT22;18701;45.588;5.288;2023-04-24T13:46:53;19.50;95.60
32201;DHT22;18701;45.588;5.288;2023-04-24T13:49:20;19.40;95.50
32201;DHT22;18701;45.588;5.288;2023-04-24T13:51:46;19.40;95.70
32201;DHT22;18701;45.588;5.288;2023-04-24T13:54:12;19.40;95.30
32201;DHT22;18701;45.588;5.288;2023-04-24T13:56:39;19.40;96.60
32201;DHT22;18701;45.588;5.288;2023-04-24T13:59:05;19.70;95.40
32201;DHT22;18701;45.588;5.288;2023-04-24T14:01:31;20.60;97.30
32201;DHT22;18701;45.588;5.288;2023-04-24T14:03:56;21.10;95.40
32201;DHT22;18701;45.588;5.288;2023-04-24T14:06:22;21.90;95.20
32201;DHT22;18701;45.588;5.288;2023-04-24T14:08:48;21.70;93.80
32201;DHT22;18701;45.588;5.288;2023-04-24T14:11:14;21.80;92.70
32201;DHT22;18701;45.588;5.288;2023-04-24T14:13:41;22.60;93.30
32201;DHT22;18701;45.588;5.288;2023-04-24T14:16:07;23.10;92.70
32201;DHT22;18701;45.588;5.288;2023-04-24T14:18:33;22.60;90.10
32201;DHT22;18701;45.588;5.288;2023-04-24T14:20:59;22.60;90.30
32201;DHT22;18701;45.588;5.288;2023-04-24T14:23:26;22.10;90.00
32201;DHT22;18701;45.588;5.288;2023-04-24T14:25:52;21.90;90.20
32201;DHT22;18701;45.588;5.288;2023-04-24T14:28:21;21.30;90.90
32201;DHT22;18701;45.588;5.288;2023-04-24T14:30:47;20.50;91.30
32201;DHT22;18701;45.588;5.288;2023-04-24T14:33:13;19.40;93.00
32201;DHT22;18701;45.588;5.288;2023-04-24T14:35:40;19.00;93.60
32201;DHT22;18701;45.588;5.288;2023-04-24T14:38:07;19.50;93.60
32201;DHT22;18701;45.588;5.288;2023-04-24T14:40:32;19.50;93.40
32201;DHT22;18701;45.588;5.288;2023-04-24T14:42:58;19.50;93.00
32201;DHT22;18701;45.588;5.288;2023-04-24T14:45:25;19.20;93.30
32201;DHT22;18701;45.588;5.288;2023-04-24T14:47:51;19.20;92.90
32201;DHT22;18701;45.588;5.288;2023-04-24T14:50:16;20.10;92.60
32201;DHT22;18701;45.588;5.288;2023-04-24T14:52:42;20.30;92.30
32201;DHT22;18701;45.588;5.288;2023-04-24T14:55:08;20.60;92.10
32201;DHT22;18701;45.588;5.288;2023-04-24T14:57:34;20.70;90.50
32201;DHT22;18701;45.588;5.288;2023-04-24T15:00:02;20.80;90.80
32201;DHT22;18701;45.588;5.288;2023-04-24T15:02:29;21.40;90.50
32201;DHT22;18701;45.588;5.288;2023-04-24T15:04:54;22.10;90.60
32201;DHT22;18701;45.588;5.288;2023-04-24T15:07:20;21.30;90.10
32201;DHT22;18701;45.588;5.288;2023-04-24T15:09:45;21.30;88.80
32201;DHT22;18701;45.588;5.288;2023-04-24T15:12:12;21.20;89.20
32201;DHT22;18701;45.588;5.288;2023-04-24T15:14:38;21.40;89.80
32201;DHT22;18701;45.588;5.288;2023-04-24T15:17:04;20.40;90.70
32201;DHT22;18701;45.588;5.288;2023-04-24T15:19:29;20.30;91.20
32201;DHT22;18701;45.588;5.288;2023-04-24T15:21:55;20.00;91.40
32201;DHT22;18701;45.588;5.288;2023-04-24T15:24:20;19.40;91.20
32201;DHT22;18701;45.588;5.288;2023-04-24T15:26:46;19.80;91.90
32201;DHT22;18701;45.588;5.288;2023-04-24T15:29:12;20.00;92.20
32201;DHT22;18701;45.588;5.288;2023-04-24T15:31:37;20.00;92.00
32201;DHT22;18701;45.588;5.288;2023-04-24T15:34:05;20.10;92.00
32201;DHT22;18701;45.588;5.288;2023-04-24T15:36:31;19.60;91.00
32201;DHT22;18701;45.588;5.288;2023-04-24T15:38:57;19.00;91.90
32201;DHT22;18701;45.588;5.288;2023-04-24T15:41:23;19.10;91.70
32201;DHT22;18701;45.588;5.288;2023-04-24T15:43:48;19.00;91.70
32201;DHT22;18701;45.588;5.288;2023-04-24T15:46:14;18.90;92.20
32201;DHT22;18701;45.588;5.288;2023-04-24T15:48:41;19.00;92.30
32201;DHT22;18701;45.588;5.288;2023-04-24T15:51:07;19.00;92.80